Disclaimer

Please do not use the information listed here in-flight or in-navigation, as they are not provided to us by the airports but are provided by volunteers, so they might be outdated.

Search


Regions


Airport information page

Radio informations:
INFO - 120.2 MHz

Airport informations:
Latitude: 59° 47' 30.93" N
Longitude: 005° 20' 27.06" E
Elevation: 160 feet - 49 meters
Operating hours: NO OPERATING HOURS LISTED
Operating agency: Civil government, landing fees and diplomatic clearance may be required
Timezone: UTC+1(+2DT) - Last Sunday in March to last Sunday in October
Fuel: Jet A1, without icing nhibitor.

100/130 MIL Spec, low lead, aviation gasoline (BLUE)

Runway information:
15/33 - 3937 x 98 feet< - >1200 x 30 meters

Recent METARs:
ENSO 211820Z 12010KT 9999 FEW020 01/M02 Q1011
ENSO 211820Z 12010KT 9999 FEW020 01/M02 Q1011
ENSO 211820Z 12010KT 9999 FEW020 01/M02 Q1011

Airport on the map: